createdAt,value
2023-04-02T00:02:13.865Z,18.22
2023-04-02T00:04:42.090Z,18.20
2023-04-02T00:07:10.273Z,18.21
2023-04-02T00:09:38.619Z,18.17
2023-04-02T00:12:06.589Z,18.11
2023-04-02T00:14:35.840Z,18.11
2023-04-02T00:17:03.822Z,18.10
2023-04-02T00:19:31.731Z,18.10
2023-04-02T00:21:59.750Z,18.09
2023-04-02T00:24:27.900Z,18.13
2023-04-02T00:26:55.880Z,18.13
2023-04-02T00:29:24.083Z,18.12
2023-04-02T00:31:52.085Z,18.14
2023-04-02T00:34:20.074Z,18.12
2023-04-02T00:36:48.012Z,18.09
2023-04-02T00:39:15.950Z,18.08
2023-04-02T00:41:47.443Z,18.06
2023-04-02T00:44:15.691Z,18.07
2023-04-02T00:46:47.397Z,18.09
2023-04-02T00:49:15.740Z,18.04
2023-04-02T00:51:43.739Z,18.08
2023-04-02T00:54:16.042Z,18.04
2023-04-02T00:56:44.085Z,18.05
2023-04-02T00:59:12.079Z,18.04
2023-04-02T01:01:42.789Z,18.05
2023-04-02T01:04:11.049Z,18.03
2023-04-02T01:06:39.375Z,18.03
2023-04-02T01:09:07.377Z,18.00
2023-04-02T01:11:35.454Z,18.02
2023-04-02T01:14:03.638Z,18.04
2023-04-02T01:16:32.213Z,18.03
2023-04-02T01:19:02.248Z,17.99
2023-04-02T01:21:30.998Z,17.95
2023-04-02T01:23:59.119Z,17.99
2023-04-02T01:26:27.414Z,18.01
2023-04-02T01:28:55.380Z,17.99
2023-04-02T01:31:23.443Z,17.99
2023-04-02T01:33:51.439Z,17.98
2023-04-02T01:36:19.436Z,17.96
2023-04-02T01:38:47.435Z,17.97
2023-04-02T01:41:15.598Z,17.99
2023-04-02T01:43:43.980Z,17.96
2023-04-02T01:46:12.160Z,17.96
2023-04-02T01:48:40.164Z,17.95
2023-04-02T01:51:08.159Z,17.93
2023-04-02T01:53:36.164Z,17.90
2023-04-02T01:56:05.382Z,17.88
2023-04-02T01:58:33.618Z,17.83
2023-04-02T02:01:02.804Z,17.84
2023-04-02T02:03:30.906Z,17.83
2023-04-02T02:05:58.897Z,17.84
2023-04-02T02:08:27.469Z,17.81
2023-04-02T02:10:55.510Z,17.77
2023-04-02T02:13:23.780Z,17.81
2023-04-02T02:15:52.260Z,17.80
2023-04-02T02:18:20.141Z,17.80
2023-04-02T02:20:48.150Z,17.76
2023-04-02T02:23:16.203Z,17.77
2023-04-02T02:25:44.282Z,17.78
2023-04-02T02:28:12.308Z,17.77
2023-04-02T02:30:40.420Z,17.80
2023-04-02T02:33:09.024Z,17.79
2023-04-02T02:35:37.651Z,17.75
2023-04-02T02:38:06.520Z,17.75
2023-04-02T02:40:34.587Z,17.73
2023-04-02T02:43:02.535Z,17.74
2023-04-02T02:45:30.632Z,17.74
2023-04-02T02:47:58.641Z,17.69
2023-04-02T02:50:26.650Z,17.74
2023-04-02T02:52:54.794Z,17.76
2023-04-02T02:55:23.036Z,17.68
2023-04-02T02:57:50.919Z,17.70
2023-04-02T03:00:19.980Z,17.72
2023-04-02T03:02:48.107Z,17.70
2023-04-02T03:05:16.210Z,17.68
2023-04-02T03:07:44.211Z,17.65
2023-04-02T03:10:12.275Z,17.66
2023-04-02T03:12:40.308Z,17.67
2023-04-02T03:15:08.436Z,17.63
2023-04-02T03:17:36.622Z,17.64
2023-04-02T03:20:06.673Z,17.64
2023-04-02T03:22:36.151Z,17.61
2023-04-02T03:25:04.122Z,17.64
2023-04-02T03:27:32.119Z,17.61
2023-04-02T03:30:01.872Z,17.61
2023-04-02T03:32:30.283Z,17.61
2023-04-02T03:34:58.258Z,17.62
2023-04-02T03:37:26.166Z,17.60
2023-04-02T03:39:54.114Z,17.56
2023-04-02T03:42:22.119Z,17.58
2023-04-02T03:44:50.313Z,17.56
2023-04-02T03:47:18.501Z,17.59
2023-04-02T03:49:46.525Z,17.62
2023-04-02T03:52:14.485Z,17.62
2023-04-02T03:54:53.151Z,17.62
2023-04-02T03:57:22.884Z,17.62
2023-04-02T03:59:51.598Z,17.60
2023-04-02T04:02:19.645Z,17.57
2023-04-02T04:04:47.689Z,17.59
2023-04-02T04:07:15.756Z,17.59
2023-04-02T04:09:43.795Z,17.53
2023-04-02T04:12:13.465Z,17.58
2023-04-02T04:14:42.783Z,17.49
2023-04-02T04:17:14.143Z,17.43
2023-04-02T04:19:42.088Z,17.46
2023-04-02T04:22:09.892Z,17.44
2023-04-02T04:24:39.418Z,17.43
2023-04-02T04:27:09.685Z,17.46
2023-04-02T04:29:40.890Z,17.47
2023-04-02T04:32:08.862Z,17.46
2023-04-02T04:34:42.349Z,17.44
2023-04-02T04:37:10.275Z,17.44
2023-04-02T04:39:38.085Z,17.52
2023-04-02T04:42:05.960Z,17.60
2023-04-02T04:44:33.979Z,17.67
2023-04-02T04:47:01.950Z,17.69
2023-04-02T04:49:29.733Z,17.70
2023-04-02T04:51:57.674Z,17.71
2023-04-02T04:54:25.515Z,17.77
2023-04-02T04:56:53.402Z,17.78
2023-04-02T04:59:23.624Z,17.74
2023-04-02T05:01:51.572Z,17.72
2023-04-02T05:04:19.444Z,17.79
2023-04-02T05:06:47.343Z,18.15
2023-04-02T05:09:15.307Z,18.54
2023-04-02T05:11:43.033Z,18.86
2023-04-02T05:14:10.937Z,19.15
2023-04-02T05:16:38.863Z,19.37
2023-04-02T05:19:06.788Z,19.46
2023-04-02T05:21:34.810Z,19.58
2023-04-02T05:24:02.617Z,19.73
2023-04-02T05:26:30.465Z,19.82
2023-04-02T05:28:58.449Z,19.88
2023-04-02T05:31:26.726Z,19.93
2023-04-02T05:33:54.514Z,19.88
2023-04-02T05:36:22.328Z,19.81
2023-04-02T05:38:51.295Z,19.67
2023-04-02T05:41:19.042Z,19.55
2023-04-02T05:43:49.043Z,19.49
2023-04-02T05:46:17.047Z,19.44
2023-04-02T05:48:44.864Z,19.41
2023-04-02T05:51:12.617Z,19.39
2023-04-02T05:53:40.682Z,19.34
2023-04-02T05:56:08.501Z,19.39
2023-04-02T05:58:37.232Z,19.27
2023-04-02T06:01:05.226Z,19.28
2023-04-02T06:03:33.102Z,19.32
2023-04-02T06:06:00.973Z,19.27
2023-04-02T06:08:28.752Z,19.26
2023-04-02T06:10:56.757Z,19.19
2023-04-02T06:13:24.609Z,19.12
2023-04-02T06:15:52.443Z,19.06
2023-04-02T06:18:20.497Z,19.04
2023-04-02T06:20:48.354Z,18.99
2023-04-02T06:23:16.203Z,19.17
2023-04-02T06:25:44.066Z,19.29
2023-04-02T06:28:11.968Z,19.16
2023-04-02T06:30:39.823Z,19.10
2023-04-02T06:33:09.061Z,18.91
2023-04-02T06:35:37.324Z,18.94
2023-04-02T06:38:05.535Z,18.77
2023-04-02T06:40:33.448Z,18.71
2023-04-02T06:43:01.344Z,18.63
2023-04-02T06:45:29.314Z,18.56
2023-04-02T06:47:57.226Z,18.48
2023-04-02T06:50:25.146Z,18.46
2023-04-02T06:52:52.992Z,18.48
2023-04-02T06:55:20.785Z,18.42
2023-04-02T06:57:48.720Z,18.41
2023-04-02T07:00:16.611Z,18.33
2023-04-02T07:02:44.443Z,18.31
2023-04-02T07:05:12.633Z,18.46
2023-04-02T07:07:40.530Z,18.70
2023-04-02T07:10:09.261Z,18.96
2023-04-02T07:12:37.105Z,19.29
2023-04-02T07:15:05.096Z,19.54
2023-04-02T07:17:33.030Z,19.70
2023-04-02T07:20:00.922Z,19.83
2023-04-02T07:22:31.759Z,19.89
2023-04-02T07:24:59.742Z,19.92
2023-04-02T07:27:28.043Z,19.93
2023-04-02T07:29:56.020Z,19.78
2023-04-02T07:32:23.812Z,19.77
2023-04-02T07:34:51.725Z,19.67
2023-04-02T07:37:19.513Z,19.51
2023-04-02T07:39:47.289Z,19.43
2023-04-02T07:42:17.946Z,19.36
2023-04-02T07:44:45.713Z,19.18
2023-04-02T07:47:13.461Z,19.16
2023-04-02T07:49:41.811Z,19.02
2023-04-02T07:52:09.624Z,18.97
2023-04-02T07:54:38.289Z,18.97
2023-04-02T07:57:06.208Z,18.89
2023-04-02T07:59:34.106Z,18.97
2023-04-02T08:02:02.512Z,19.28
2023-04-02T08:04:33.182Z,19.30
2023-04-02T08:07:01.651Z,19.22
2023-04-02T08:09:29.689Z,19.09
2023-04-02T08:11:57.488Z,19.01
2023-04-02T08:14:25.378Z,19.00
2023-04-02T08:16:53.267Z,18.85
2023-04-02T08:19:21.077Z,18.75
2023-04-02T08:21:52.943Z,18.77
2023-04-02T08:24:20.855Z,18.70
2023-04-02T08:26:48.719Z,18.65
2023-04-02T08:29:16.560Z,18.67
2023-04-02T08:31:44.323Z,18.61
2023-04-02T08:34:12.155Z,18.50
2023-04-02T08:36:39.986Z,18.50
2023-04-02T08:39:11.674Z,18.50
2023-04-02T08:41:39.556Z,18.48
2023-04-02T08:44:07.446Z,18.42
2023-04-02T08:46:35.534Z,18.35
2023-04-02T08:49:03.724Z,18.41
2023-04-02T08:51:31.537Z,18.33
2023-04-02T08:53:59.303Z,18.36
2023-04-02T08:56:27.156Z,18.34
2023-04-02T08:58:56.042Z,18.30
2023-04-02T09:01:24.333Z,18.28
2023-04-02T09:03:52.305Z,18.31
2023-04-02T09:06:20.121Z,18.29
2023-04-02T09:08:47.902Z,18.31
2023-04-02T09:11:17.390Z,18.32
2023-04-02T09:13:46.619Z,18.32
2023-04-02T09:16:14.712Z,18.35
2023-04-02T09:18:42.599Z,18.33
2023-04-02T09:21:10.433Z,18.34
2023-04-02T09:23:38.199Z,18.36
2023-04-02T09:26:06.002Z,18.35
2023-04-02T09:28:36.371Z,18.32
2023-04-02T09:31:06.249Z,18.34
2023-04-02T09:33:34.788Z,18.33
2023-04-02T09:36:02.810Z,18.34
2023-04-02T09:38:31.794Z,18.34
2023-04-02T09:40:59.710Z,18.36
2023-04-02T09:43:27.485Z,18.33
2023-04-02T09:45:55.366Z,18.33
2023-04-02T09:48:23.273Z,18.29
2023-04-02T09:50:51.200Z,18.32
2023-04-02T09:53:18.955Z,18.34
2023-04-02T09:55:46.836Z,18.34
2023-04-02T09:58:17.533Z,18.35
2023-04-02T10:00:45.679Z,18.36
2023-04-02T10:03:13.724Z,18.39
2023-04-02T10:05:43.273Z,18.35
2023-04-02T10:08:11.342Z,18.38
2023-04-02T10:10:39.263Z,18.41
2023-04-02T10:13:07.094Z,18.40
2023-04-02T10:15:35.188Z,18.42
2023-04-02T10:18:07.730Z,18.43
2023-04-02T10:20:41.715Z,18.43
2023-04-02T10:23:16.660Z,18.45
2023-04-02T10:25:44.447Z,18.46
2023-04-02T10:28:15.538Z,18.41
2023-04-02T10:30:43.423Z,18.43
2023-04-02T10:33:11.202Z,18.39
2023-04-02T10:35:41.393Z,18.38
2023-04-02T10:38:13.751Z,18.39
2023-04-02T10:40:41.581Z,18.36
2023-04-02T10:43:09.375Z,18.34
2023-04-02T10:45:37.559Z,18.36
2023-04-02T10:48:05.878Z,18.35
2023-04-02T10:50:33.983Z,18.30
2023-04-02T10:53:01.789Z,18.33
2023-04-02T10:55:29.576Z,18.33
2023-04-02T10:57:57.318Z,18.33
2023-04-02T11:00:25.131Z,18.40
2023-04-02T11:02:53.038Z,18.38
2023-04-02T11:05:20.953Z,18.37
2023-04-02T11:07:49.074Z,18.36
2023-04-02T11:10:23.678Z,18.37
2023-04-02T11:12:51.624Z,18.38
2023-04-02T11:15:19.490Z,18.37
2023-04-02T11:17:47.343Z,18.37
2023-04-02T11:20:17.811Z,18.37
2023-04-02T11:22:47.503Z,18.32
2023-04-02T11:25:15.603Z,18.31
2023-04-02T11:27:48.935Z,18.29
2023-04-02T11:30:19.268Z,18.32
2023-04-02T11:32:49.353Z,18.32
2023-04-02T11:35:17.300Z,18.31
2023-04-02T11:37:45.254Z,18.33
2023-04-02T11:40:14.069Z,18.32
2023-04-02T11:42:42.082Z,18.31
2023-04-02T11:45:09.863Z,18.41
2023-04-02T11:47:37.977Z,18.66
2023-04-02T11:50:05.943Z,18.91
2023-04-02T11:52:33.965Z,19.11
2023-04-02T11:55:01.748Z,19.20
2023-04-02T11:57:30.747Z,19.21
2023-04-02T11:59:58.574Z,19.06
2023-04-02T12:02:26.532Z,19.02
2023-04-02T12:04:54.377Z,19.00
2023-04-02T12:07:22.350Z,19.02
2023-04-02T12:09:50.160Z,19.01
2023-04-02T12:12:17.952Z,19.04
2023-04-02T12:14:48.885Z,19.33
2023-04-02T12:17:16.826Z,19.28
2023-04-02T12:19:44.623Z,19.22
2023-04-02T12:22:12.526Z,19.10
2023-04-02T12:24:40.323Z,18.99
2023-04-02T12:27:08.916Z,18.94
2023-04-02T12:29:39.041Z,18.83
2023-04-02T12:32:07.036Z,18.80
2023-04-02T12:34:34.846Z,19.01
2023-04-02T12:37:03.810Z,19.15
2023-04-02T12:39:31.748Z,19.47
2023-04-02T12:42:01.263Z,19.76
2023-04-02T12:44:29.059Z,19.92
2023-04-02T12:47:00.570Z,20.04
2023-04-02T12:49:28.503Z,20.14
2023-04-02T12:51:56.310Z,20.25
2023-04-02T12:54:24.182Z,20.33
2023-04-02T12:56:51.997Z,20.41
2023-04-02T12:59:19.789Z,20.41
2023-04-02T13:01:47.706Z,20.29
2023-04-02T13:04:16.090Z,20.19
2023-04-02T13:06:44.224Z,20.21
2023-04-02T13:09:11.982Z,20.16
2023-04-02T13:11:40.248Z,20.16
2023-04-02T13:14:07.992Z,20.15
2023-04-02T13:16:35.933Z,20.06
2023-04-02T13:19:05.808Z,20.08
2023-04-02T13:21:33.646Z,20.01
2023-04-02T13:24:01.439Z,19.85
2023-04-02T13:26:29.217Z,19.76
2023-04-02T13:28:57.233Z,19.70
2023-04-02T13:31:25.135Z,19.62
2023-04-02T13:33:52.988Z,19.62
2023-04-02T13:36:23.153Z,19.52
2023-04-02T13:38:51.203Z,19.93
2023-04-02T13:41:19.016Z,20.03
2023-04-02T13:43:46.851Z,19.95
2023-04-02T13:46:14.796Z,19.87
2023-04-02T13:48:42.688Z,19.78
2023-04-02T13:51:10.527Z,19.63
2023-04-02T13:53:38.275Z,19.64
2023-04-02T13:56:06.486Z,19.63
2023-04-02T13:58:34.268Z,19.63
2023-04-02T14:01:02.197Z,19.61
2023-04-02T14:03:29.983Z,19.57
2023-04-02T14:05:58.316Z,19.51
2023-04-02T14:08:26.078Z,19.42
2023-04-02T14:10:54.475Z,19.40
2023-04-02T14:13:22.321Z,19.43
2023-04-02T14:15:50.323Z,19.46
2023-04-02T14:18:18.140Z,19.36
2023-04-02T14:20:46.178Z,19.38
2023-04-02T14:23:14.083Z,19.37
2023-04-02T14:25:41.954Z,19.35
2023-04-02T14:28:11.778Z,19.36
2023-04-02T14:30:39.936Z,19.33
2023-04-02T14:33:07.915Z,19.24
2023-04-02T14:35:35.853Z,19.19
2023-04-02T14:38:03.799Z,19.21
2023-04-02T14:40:34.852Z,19.40
2023-04-02T14:43:03.015Z,19.64
2023-04-02T14:45:30.828Z,19.95
2023-04-02T14:48:01.545Z,20.28
2023-04-02T14:50:29.440Z,20.56
2023-04-02T14:52:57.234Z,20.78
2023-04-02T14:55:26.222Z,20.93
2023-04-02T14:57:57.588Z,20.99
2023-04-02T15:00:25.369Z,21.02
2023-04-02T15:02:53.205Z,21.01
2023-04-02T15:05:21.257Z,20.93
2023-04-02T15:07:49.065Z,20.84
2023-04-02T15:10:16.952Z,20.75
2023-04-02T15:12:44.714Z,20.75
2023-04-02T15:15:12.577Z,20.80
2023-04-02T15:17:40.556Z,20.78
2023-04-02T15:20:08.546Z,20.74
2023-04-02T15:22:36.377Z,20.64
2023-04-02T15:25:04.247Z,20.60
2023-04-02T15:27:32.988Z,20.48
2023-04-02T15:30:00.826Z,20.44
2023-04-02T15:32:28.621Z,20.33
2023-04-02T15:34:56.477Z,20.27
2023-04-02T15:37:24.328Z,20.29
2023-04-02T15:39:55.450Z,20.18
2023-04-02T15:42:23.296Z,20.09
2023-04-02T15:44:51.225Z,20.11
2023-04-02T15:47:21.993Z,20.09
2023-04-02T15:49:49.804Z,20.03
2023-04-02T15:52:17.547Z,20.28
2023-04-02T15:54:45.321Z,20.38
2023-04-02T15:57:13.258Z,20.30
2023-04-02T15:59:41.106Z,20.16
2023-04-02T16:02:08.937Z,20.05
2023-04-02T16:04:36.896Z,20.02
2023-04-02T16:07:04.878Z,20.02
2023-04-02T16:09:32.978Z,19.87
2023-04-02T16:12:00.837Z,19.82
2023-04-02T16:14:28.760Z,19.76
2023-04-02T16:16:56.658Z,19.70
2023-04-02T16:19:24.566Z,19.62
2023-04-02T16:21:52.758Z,19.57
2023-04-02T16:24:20.633Z,19.51
2023-04-02T16:26:48.653Z,19.47
2023-04-02T16:29:16.811Z,19.46
2023-04-02T16:31:44.607Z,19.42
2023-04-02T16:34:12.440Z,19.41
2023-04-02T16:36:40.497Z,19.43
2023-04-02T16:39:08.378Z,19.44
2023-04-02T16:41:36.179Z,19.41
2023-04-02T16:44:04.081Z,19.37
2023-04-02T16:46:38.802Z,19.55
2023-04-02T16:49:07.420Z,19.76
2023-04-02T16:51:35.289Z,20.08
2023-04-02T16:54:03.244Z,20.36
2023-04-02T16:56:31.139Z,20.60
2023-04-02T16:58:59.372Z,20.72
2023-04-02T17:01:27.279Z,20.85
2023-04-02T17:03:55.241Z,20.93
2023-04-02T17:06:23.176Z,20.98
2023-04-02T17:08:51.129Z,21.02
2023-04-02T17:11:19.104Z,21.00
2023-04-02T17:13:47.048Z,20.96
2023-04-02T17:16:15.242Z,20.97
2023-04-02T17:18:43.204Z,20.94
2023-04-02T17:21:11.227Z,20.86
2023-04-02T17:23:46.235Z,20.82
2023-04-02T17:26:23.510Z,20.79
2023-04-02T17:28:51.725Z,20.79
2023-04-02T17:31:19.749Z,20.76
2023-04-02T17:33:47.732Z,20.74
2023-04-02T17:36:15.656Z,20.69
2023-04-02T17:38:43.554Z,20.65
2023-04-02T17:41:11.534Z,20.60
2023-04-02T17:43:39.502Z,20.54
2023-04-02T17:46:07.538Z,20.48
2023-04-02T17:48:35.884Z,20.41
2023-04-02T17:51:03.965Z,20.37
2023-04-02T17:53:31.890Z,20.29
2023-04-02T17:55:59.955Z,20.26
2023-04-02T17:58:27.953Z,20.22
2023-04-02T18:00:56.006Z,20.18
2023-04-02T18:03:26.875Z,20.19
2023-04-02T18:05:56.835Z,20.26
2023-04-02T18:08:26.049Z,20.39
2023-04-02T18:10:54.084Z,20.41
2023-04-02T18:13:22.154Z,20.28
2023-04-02T18:15:50.103Z,20.12
2023-04-02T18:18:18.296Z,20.06
2023-04-02T18:20:46.290Z,20.02
2023-04-02T18:23:14.343Z,20.01
2023-04-02T18:25:42.925Z,19.94
2023-04-02T18:28:11.075Z,19.84
2023-04-02T18:30:39.411Z,19.81
2023-04-02T18:33:07.680Z,19.79
2023-04-02T18:35:36.011Z,19.74
2023-04-02T18:38:04.086Z,19.72
2023-04-02T18:40:32.140Z,19.69
2023-04-02T18:43:00.146Z,19.72
2023-04-02T18:45:28.291Z,19.74
2023-04-02T18:47:56.254Z,19.73
2023-04-02T18:50:24.230Z,19.75
2023-04-02T18:52:52.450Z,19.76
2023-04-02T18:55:20.482Z,19.74
2023-04-02T18:57:48.519Z,19.72
2023-04-02T19:00:16.486Z,19.70
2023-04-02T19:02:44.533Z,19.68
2023-04-02T19:05:12.540Z,19.65
2023-04-02T19:07:40.465Z,19.63
2023-04-02T19:10:08.430Z,19.60
2023-04-02T19:12:36.374Z,19.53
2023-04-02T19:15:04.404Z,19.54
2023-04-02T19:17:32.307Z,19.46
2023-04-02T19:20:00.265Z,19.39
2023-04-02T19:22:29.688Z,19.34
2023-04-02T19:24:58.007Z,19.29
2023-04-02T19:27:25.957Z,19.22
2023-04-02T19:29:54.060Z,19.21
2023-04-02T19:32:23.251Z,19.17
2023-04-02T19:34:51.218Z,19.14
2023-04-02T19:37:19.446Z,19.12
2023-04-02T19:39:47.964Z,19.07
2023-04-02T19:42:16.206Z,19.03
2023-04-02T19:44:44.414Z,18.98
2023-04-02T19:47:14.377Z,18.95
2023-04-02T19:49:42.447Z,18.95
2023-04-02T19:52:10.520Z,18.93
2023-04-02T19:54:38.949Z,18.91
2023-04-02T19:57:07.234Z,18.89
2023-04-02T19:59:35.244Z,18.83
2023-04-02T20:02:06.677Z,18.80
2023-04-02T20:04:34.708Z,18.80
2023-04-02T20:07:02.679Z,18.80
2023-04-02T20:09:31.001Z,18.77
2023-04-02T20:11:58.985Z,18.77
2023-04-02T20:14:27.058Z,18.75
2023-04-02T20:16:55.032Z,18.73
2023-04-02T20:19:23.138Z,18.73
2023-04-02T20:21:52.205Z,18.73
2023-04-02T20:24:20.379Z,18.69
2023-04-02T20:26:51.099Z,18.67
2023-04-02T20:29:19.048Z,18.65
2023-04-02T20:31:47.403Z,18.61
2023-04-02T20:34:15.596Z,18.58
2023-04-02T20:36:43.720Z,18.57
2023-04-02T20:39:17.731Z,18.57
2023-04-02T20:41:45.636Z,18.55
2023-04-02T20:44:13.737Z,18.56
2023-04-02T20:46:41.750Z,18.52
2023-04-02T20:49:09.717Z,18.51
2023-04-02T20:51:37.816Z,18.50
2023-04-02T20:54:05.879Z,18.44
2023-04-02T20:56:33.780Z,18.50
2023-04-02T20:59:01.793Z,18.43
2023-04-02T21:01:30.047Z,18.44
2023-04-02T21:03:58.254Z,18.43
2023-04-02T21:06:26.126Z,18.42
2023-04-02T21:08:54.076Z,18.36
2023-04-02T21:11:22.837Z,18.33
2023-04-02T21:13:50.957Z,18.36
2023-04-02T21:16:19.371Z,18.34
2023-04-02T21:18:47.337Z,18.35
2023-04-02T21:21:15.650Z,18.33
2023-04-02T21:23:43.546Z,18.28
2023-04-02T21:26:11.878Z,18.31
2023-04-02T21:28:39.764Z,18.31
2023-04-02T21:31:07.793Z,18.29
2023-04-02T21:33:35.844Z,18.26
2023-04-02T21:36:03.781Z,18.24
2023-04-02T21:38:31.821Z,18.27
2023-04-02T21:41:00.058Z,18.25
2023-04-02T21:43:28.008Z,18.26
2023-04-02T21:45:56.302Z,18.20
2023-04-02T21:48:24.273Z,18.18
2023-04-02T21:50:52.343Z,18.18
2023-04-02T21:53:20.260Z,18.14
2023-04-02T21:55:48.691Z,18.15
2023-04-02T21:58:16.698Z,18.17
2023-04-02T22:00:44.843Z,18.15
2023-04-02T22:03:18.496Z,18.12
2023-04-02T22:05:53.001Z,18.10
2023-04-02T22:08:20.954Z,18.08
2023-04-02T22:10:49.002Z,18.08
2023-04-02T22:13:16.916Z,18.06
2023-04-02T22:15:44.842Z,18.06
2023-04-02T22:18:12.793Z,18.09
2023-04-02T22:20:40.744Z,18.08
2023-04-02T22:23:09.204Z,18.09
2023-04-02T22:25:37.175Z,18.06
2023-04-02T22:28:05.109Z,18.05
2023-04-02T22:30:33.172Z,18.03
2023-04-02T22:33:01.299Z,17.97
2023-04-02T22:35:30.522Z,17.97
2023-04-02T22:37:58.699Z,17.95
2023-04-02T22:40:26.653Z,17.98
2023-04-02T22:42:54.696Z,17.98
2023-04-02T22:45:22.736Z,17.97
2023-04-02T22:47:50.770Z,17.97
2023-04-02T22:50:18.794Z,17.98
2023-04-02T22:52:46.903Z,17.95
2023-04-02T22:55:15.529Z,17.91
2023-04-02T22:57:43.659Z,17.89
2023-04-02T23:00:12.361Z,17.86
2023-04-02T23:02:40.773Z,17.86
2023-04-02T23:05:08.785Z,17.85
2023-04-02T23:07:36.823Z,17.85
2023-04-02T23:10:05.921Z,17.86
2023-04-02T23:12:33.932Z,17.88
2023-04-02T23:15:02.276Z,17.85
2023-04-02T23:17:30.256Z,17.82
2023-04-02T23:19:58.256Z,17.82
2023-04-02T23:22:26.292Z,17.82
2023-04-02T23:24:54.709Z,17.81
2023-04-02T23:27:23.668Z,17.77
2023-04-02T23:29:51.877Z,17.80
2023-04-02T23:32:19.817Z,17.76
2023-04-02T23:34:47.964Z,17.78
2023-04-02T23:37:16.674Z,17.77
2023-04-02T23:39:44.620Z,17.75
2023-04-02T23:42:13.155Z,17.70
2023-04-02T23:44:44.068Z,17.72
2023-04-02T23:47:11.996Z,17.76
2023-04-02T23:49:39.949Z,17.74
2023-04-02T23:52:07.831Z,17.75
2023-04-02T23:54:35.870Z,17.74
2023-04-02T23:57:03.860Z,17.71
2023-04-02T23:59:31.814Z,17.71
